KOF weather

Komatipoort Airport
Komatipoort, Mpumalanga, South Africa

Public forecast

Using degrees Celsius for public forecast. Weather courtesy of forecast.io.

Closest aviation weather report (METAR) to Komatipoort Airport

Closest report is Kruger Mpumalanga International Airport, 44.8 nm (83.0 km) W. Retrieved 2019/12/07 13:00 UTC (57 minutes ago):

FAKN 071300Z AUTO 04003KT //// // ////// 25/19 Q1013

Closest aviation forecast (TAF) to Komatipoort Airport

Forecast is more than 12 hours old.

Closest forecast is Kruger Mpumalanga International Airport, 44.8 nm (83.0 km) W. Retrieved 2017/06/05 04:55 UTC (3 years ago):

TAF FAKN 050300Z 0504/0515 25006KT CAVOK BECMG 0511/0513 13005KT SCT030 BECMG 0513/0515 07005KT TX22/0513ZTN08/0504Z